sensor_id;sensor_type;location;lat;lon;timestamp;P1;durP1;ratioP1;P2;durP2;ratioP2
42364;SDS011;28498;54.400;18.566;2022-12-07T00:01:28;30.20;;;12.35;;
42364;SDS011;28498;54.400;18.566;2022-12-07T00:03:58;23.98;;;11.27;;
42364;SDS011;28498;54.400;18.566;2022-12-07T00:06:32;29.42;;;13.48;;
42364;SDS011;28498;54.400;18.566;2022-12-07T00:09:04;23.88;;;12.10;;
42364;SDS011;28498;54.400;18.566;2022-12-07T00:11:33;26.17;;;11.98;;
42364;SDS011;28498;54.400;18.566;2022-12-07T00:14:02;23.98;;;11.32;;
42364;SDS011;28498;54.400;18.566;2022-12-07T00:16:31;28.40;;;11.35;;
42364;SDS011;28498;54.400;18.566;2022-12-07T00:18:59;27.92;;;11.45;;
42364;SDS011;28498;54.400;18.566;2022-12-07T00:21:27;28.90;;;11.50;;
42364;SDS011;28498;54.400;18.566;2022-12-07T00:23:56;24.40;;;11.35;;
42364;SDS011;28498;54.400;18.566;2022-12-07T00:26:27;25.55;;;10.98;;
42364;SDS011;28498;54.400;18.566;2022-12-07T00:28:56;25.60;;;11.68;;
42364;SDS011;28498;54.400;18.566;2022-12-07T00:31:26;22.40;;;10.00;;
42364;SDS011;28498;54.400;18.566;2022-12-07T00:33:54;25.65;;;12.13;;
42364;SDS011;28498;54.400;18.566;2022-12-07T00:36:23;25.27;;;11.07;;
42364;SDS011;28498;54.400;18.566;2022-12-07T00:38:52;24.13;;;10.25;;
42364;SDS011;28498;54.400;18.566;2022-12-07T00:41:22;20.42;;;10.27;;
42364;SDS011;28498;54.400;18.566;2022-12-07T00:43:50;26.08;;;11.85;;
42364;SDS011;28498;54.400;18.566;2022-12-07T00:46:18;26.42;;;11.18;;
42364;SDS011;28498;54.400;18.566;2022-12-07T00:48:46;28.17;;;12.30;;
42364;SDS011;28498;54.400;18.566;2022-12-07T00:51:15;24.58;;;10.88;;
42364;SDS011;28498;54.400;18.566;2022-12-07T00:53:43;22.63;;;10.93;;
42364;SDS011;28498;54.400;18.566;2022-12-07T00:56:14;25.77;;;11.05;;
42364;SDS011;28498;54.400;18.566;2022-12-07T00:58:49;24.27;;;10.93;;
42364;SDS011;28498;54.400;18.566;2022-12-07T01:01:17;27.42;;;10.98;;
42364;SDS011;28498;54.400;18.566;2022-12-07T01:03:44;27.80;;;10.70;;
42364;SDS011;28498;54.400;18.566;2022-12-07T01:06:14;26.65;;;10.75;;
42364;SDS011;28498;54.400;18.566;2022-12-07T01:08:42;24.75;;;12.35;;
42364;SDS011;28498;54.400;18.566;2022-12-07T01:11:11;23.55;;;8.70;;
42364;SDS011;28498;54.400;18.566;2022-12-07T01:13:41;23.70;;;9.77;;
42364;SDS011;28498;54.400;18.566;2022-12-07T01:16:10;22.85;;;10.00;;
42364;SDS011;28498;54.400;18.566;2022-12-07T01:18:41;24.52;;;10.15;;
42364;SDS011;28498;54.400;18.566;2022-12-07T01:21:09;27.30;;;11.25;;
42364;SDS011;28498;54.400;18.566;2022-12-07T01:23:39;23.52;;;10.25;;
42364;SDS011;28498;54.400;18.566;2022-12-07T01:26:09;27.23;;;11.40;;
42364;SDS011;28498;54.400;18.566;2022-12-07T01:28:38;28.27;;;10.02;;
42364;SDS011;28498;54.400;18.566;2022-12-07T01:31:06;22.67;;;10.43;;
42364;SDS011;28498;54.400;18.566;2022-12-07T01:33:39;25.33;;;10.27;;
42364;SDS011;28498;54.400;18.566;2022-12-07T01:36:07;20.52;;;9.65;;
42364;SDS011;28498;54.400;18.566;2022-12-07T01:38:49;21.90;;;9.88;;
42364;SDS011;28498;54.400;18.566;2022-12-07T01:41:19;24.38;;;10.27;;
42364;SDS011;28498;54.400;18.566;2022-12-07T01:46:42;26.85;;;10.32;;
42364;SDS011;28498;54.400;18.566;2022-12-07T01:49:15;23.63;;;10.20;;
42364;SDS011;28498;54.400;18.566;2022-12-07T01:51:46;20.50;;;10.55;;
42364;SDS011;28498;54.400;18.566;2022-12-07T01:54:15;27.83;;;10.73;;
42364;SDS011;28498;54.400;18.566;2022-12-07T01:56:45;22.15;;;9.98;;
42364;SDS011;28498;54.400;18.566;2022-12-07T01:59:18;27.85;;;10.48;;
42364;SDS011;28498;54.400;18.566;2022-12-07T02:01:49;24.60;;;10.50;;
42364;SDS011;28498;54.400;18.566;2022-12-07T02:04:16;27.05;;;10.70;;
42364;SDS011;28498;54.400;18.566;2022-12-07T02:06:44;27.35;;;11.73;;
42364;SDS011;28498;54.400;18.566;2022-12-07T02:09:12;24.95;;;11.10;;
42364;SDS011;28498;54.400;18.566;2022-12-07T02:11:39;24.55;;;10.48;;
42364;SDS011;28498;54.400;18.566;2022-12-07T02:14:07;19.77;;;9.40;;
42364;SDS011;28498;54.400;18.566;2022-12-07T02:16:51;23.88;;;10.10;;
42364;SDS011;28498;54.400;18.566;2022-12-07T02:28:07;24.10;;;10.20;;
42364;SDS011;28498;54.400;18.566;2022-12-07T02:30:46;23.55;;;9.63;;
42364;SDS011;28498;54.400;18.566;2022-12-07T02:33:16;22.92;;;9.43;;
42364;SDS011;28498;54.400;18.566;2022-12-07T02:35:59;22.08;;;8.73;;
42364;SDS011;28498;54.400;18.566;2022-12-07T02:41:16;20.50;;;9.90;;
42364;SDS011;28498;54.400;18.566;2022-12-07T02:44:02;19.65;;;8.93;;
42364;SDS011;28498;54.400;18.566;2022-12-07T02:46:36;17.67;;;8.27;;
42364;SDS011;28498;54.400;18.566;2022-12-07T02:49:08;17.58;;;8.10;;
42364;SDS011;28498;54.400;18.566;2022-12-07T02:51:40;15.98;;;7.65;;
42364;SDS011;28498;54.400;18.566;2022-12-07T02:54:13;22.33;;;7.82;;
42364;SDS011;28498;54.400;18.566;2022-12-07T03:11:29;12.10;;;6.82;;
42364;SDS011;28498;54.400;18.566;2022-12-07T03:14:30;12.52;;;6.63;;
42364;SDS011;28498;54.400;18.566;2022-12-07T03:17:10;11.10;;;5.25;;
42364;SDS011;28498;54.400;18.566;2022-12-07T03:19:42;14.68;;;5.75;;
42364;SDS011;28498;54.400;18.566;2022-12-07T03:22:12;15.20;;;6.40;;
42364;SDS011;28498;54.400;18.566;2022-12-07T03:27:12;12.95;;;5.72;;
42364;SDS011;28498;54.400;18.566;2022-12-07T03:29:47;11.48;;;5.35;;
42364;SDS011;28498;54.400;18.566;2022-12-07T03:37:59;11.32;;;5.10;;
42364;SDS011;28498;54.400;18.566;2022-12-07T03:40:35;11.15;;;5.03;;
42364;SDS011;28498;54.400;18.566;2022-12-07T03:43:07;12.05;;;5.35;;
42364;SDS011;28498;54.400;18.566;2022-12-07T03:45:41;10.32;;;4.88;;
42364;SDS011;28498;54.400;18.566;2022-12-07T03:48:20;12.13;;;5.70;;
42364;SDS011;28498;54.400;18.566;2022-12-07T03:50:54;11.25;;;5.28;;
42364;SDS011;28498;54.400;18.566;2022-12-07T03:56:40;11.68;;;5.30;;
42364;SDS011;28498;54.400;18.566;2022-12-07T03:59:09;10.40;;;4.88;;
42364;SDS011;28498;54.400;18.566;2022-12-07T04:01:40;11.35;;;4.82;;
42364;SDS011;28498;54.400;18.566;2022-12-07T04:04:09;10.05;;;4.65;;
42364;SDS011;28498;54.400;18.566;2022-12-07T04:06:36;8.05;;;4.05;;
42364;SDS011;28498;54.400;18.566;2022-12-07T04:09:03;8.82;;;4.03;;
42364;SDS011;28498;54.400;18.566;2022-12-07T04:11:31;11.43;;;4.80;;
42364;SDS011;28498;54.400;18.566;2022-12-07T04:13:58;9.18;;;4.63;;
42364;SDS011;28498;54.400;18.566;2022-12-07T04:16:53;10.65;;;4.63;;
42364;SDS011;28498;54.400;18.566;2022-12-07T04:19:26;10.90;;;4.90;;
42364;SDS011;28498;54.400;18.566;2022-12-07T04:21:58;11.57;;;5.25;;
42364;SDS011;28498;54.400;18.566;2022-12-07T04:24:27;11.05;;;4.80;;
42364;SDS011;28498;54.400;18.566;2022-12-07T04:26:54;9.45;;;4.50;;
42364;SDS011;28498;54.400;18.566;2022-12-07T04:29:21;9.80;;;4.38;;
42364;SDS011;28498;54.400;18.566;2022-12-07T04:31:49;11.05;;;5.22;;
42364;SDS011;28498;54.400;18.566;2022-12-07T04:34:16;10.18;;;4.50;;
42364;SDS011;28498;54.400;18.566;2022-12-07T04:36:44;11.57;;;4.68;;
42364;SDS011;28498;54.400;18.566;2022-12-07T04:39:33;7.78;;;4.03;;
42364;SDS011;28498;54.400;18.566;2022-12-07T04:41:59;8.50;;;4.50;;
42364;SDS011;28498;54.400;18.566;2022-12-07T04:44:27;9.30;;;3.85;;
42364;SDS011;28498;54.400;18.566;2022-12-07T04:46:55;10.00;;;5.60;;
42364;SDS011;28498;54.400;18.566;2022-12-07T04:49:23;19.42;;;7.43;;
42364;SDS011;28498;54.400;18.566;2022-12-07T04:51:51;10.57;;;5.25;;
42364;SDS011;28498;54.400;18.566;2022-12-07T04:54:18;9.73;;;4.43;;
42364;SDS011;28498;54.400;18.566;2022-12-07T04:56:45;9.50;;;4.50;;
42364;SDS011;28498;54.400;18.566;2022-12-07T04:59:13;7.93;;;3.70;;
42364;SDS011;28498;54.400;18.566;2022-12-07T05:01:41;6.70;;;3.13;;
42364;SDS011;28498;54.400;18.566;2022-12-07T05:04:08;8.10;;;3.90;;
42364;SDS011;28498;54.400;18.566;2022-12-07T05:06:35;8.23;;;3.78;;
42364;SDS011;28498;54.400;18.566;2022-12-07T05:09:03;10.88;;;5.90;;
42364;SDS011;28498;54.400;18.566;2022-12-07T05:11:30;12.93;;;6.15;;
42364;SDS011;28498;54.400;18.566;2022-12-07T05:14:11;8.63;;;4.45;;
42364;SDS011;28498;54.400;18.566;2022-12-07T05:16:43;8.27;;;3.78;;
42364;SDS011;28498;54.400;18.566;2022-12-07T05:19:11;5.15;;;3.38;;
42364;SDS011;28498;54.400;18.566;2022-12-07T05:21:39;5.82;;;2.88;;
42364;SDS011;28498;54.400;18.566;2022-12-07T05:24:07;5.38;;;3.08;;
42364;SDS011;28498;54.400;18.566;2022-12-07T05:26:37;5.90;;;3.13;;
42364;SDS011;28498;54.400;18.566;2022-12-07T05:29:05;8.52;;;3.83;;
42364;SDS011;28498;54.400;18.566;2022-12-07T05:31:32;7.65;;;3.95;;
42364;SDS011;28498;54.400;18.566;2022-12-07T05:33:59;6.32;;;3.00;;
42364;SDS011;28498;54.400;18.566;2022-12-07T05:36:26;6.50;;;3.30;;
42364;SDS011;28498;54.400;18.566;2022-12-07T05:38:54;8.88;;;3.40;;
42364;SDS011;28498;54.400;18.566;2022-12-07T05:41:22;5.57;;;2.80;;
42364;SDS011;28498;54.400;18.566;2022-12-07T05:44:07;5.10;;;2.65;;
42364;SDS011;28498;54.400;18.566;2022-12-07T05:46:35;8.60;;;3.33;;
42364;SDS011;28498;54.400;18.566;2022-12-07T05:49:02;4.68;;;2.15;;
42364;SDS011;28498;54.400;18.566;2022-12-07T05:51:29;5.05;;;2.42;;
42364;SDS011;28498;54.400;18.566;2022-12-07T05:53:55;3.78;;;2.05;;
42364;SDS011;28498;54.400;18.566;2022-12-07T05:56:22;4.82;;;2.53;;
42364;SDS011;28498;54.400;18.566;2022-12-07T05:58:50;6.10;;;3.13;;
42364;SDS011;28498;54.400;18.566;2022-12-07T06:01:35;4.90;;;2.67;;
42364;SDS011;28498;54.400;18.566;2022-12-07T06:04:02;4.95;;;2.67;;
42364;SDS011;28498;54.400;18.566;2022-12-07T06:06:29;5.97;;;2.70;;
42364;SDS011;28498;54.400;18.566;2022-12-07T06:08:56;18.02;;;7.85;;
42364;SDS011;28498;54.400;18.566;2022-12-07T06:11:23;6.65;;;3.45;;
42364;SDS011;28498;54.400;18.566;2022-12-07T06:14:09;6.05;;;3.58;;
42364;SDS011;28498;54.400;18.566;2022-12-07T06:16:36;5.40;;;3.00;;
42364;SDS011;28498;54.400;18.566;2022-12-07T06:19:03;6.32;;;3.78;;
42364;SDS011;28498;54.400;18.566;2022-12-07T06:21:30;7.35;;;3.42;;
42364;SDS011;28498;54.400;18.566;2022-12-07T06:23:57;5.35;;;2.60;;
42364;SDS011;28498;54.400;18.566;2022-12-07T06:26:24;4.63;;;2.38;;
42364;SDS011;28498;54.400;18.566;2022-12-07T06:28:51;4.50;;;2.60;;
42364;SDS011;28498;54.400;18.566;2022-12-07T06:31:18;5.95;;;2.78;;
42364;SDS011;28498;54.400;18.566;2022-12-07T06:33:45;8.20;;;3.15;;
42364;SDS011;28498;54.400;18.566;2022-12-07T06:36:12;4.90;;;2.10;;
42364;SDS011;28498;54.400;18.566;2022-12-07T06:38:39;3.17;;;1.70;;
42364;SDS011;28498;54.400;18.566;2022-12-07T06:41:06;3.25;;;1.60;;
42364;SDS011;28498;54.400;18.566;2022-12-07T06:43:33;2.90;;;1.58;;
42364;SDS011;28498;54.400;18.566;2022-12-07T06:46:00;15.00;;;4.25;;
42364;SDS011;28498;54.400;18.566;2022-12-07T06:48:27;10.90;;;3.42;;
42364;SDS011;28498;54.400;18.566;2022-12-07T06:50:54;6.47;;;1.83;;
42364;SDS011;28498;54.400;18.566;2022-12-07T06:53:21;5.03;;;2.45;;
42364;SDS011;28498;54.400;18.566;2022-12-07T06:55:48;3.70;;;1.83;;
42364;SDS011;28498;54.400;18.566;2022-12-07T06:58:16;7.63;;;3.70;;
42364;SDS011;28498;54.400;18.566;2022-12-07T07:00:43;4.65;;;1.80;;
42364;SDS011;28498;54.400;18.566;2022-12-07T07:03:10;5.55;;;2.58;;
42364;SDS011;28498;54.400;18.566;2022-12-07T07:05:38;4.90;;;2.35;;
42364;SDS011;28498;54.400;18.566;2022-12-07T07:08:05;4.38;;;2.28;;
42364;SDS011;28498;54.400;18.566;2022-12-07T07:10:48;4.88;;;2.53;;
42364;SDS011;28498;54.400;18.566;2022-12-07T07:13:15;6.00;;;2.55;;
42364;SDS011;28498;54.400;18.566;2022-12-07T07:15:42;3.83;;;1.90;;
42364;SDS011;28498;54.400;18.566;2022-12-07T07:18:09;4.50;;;2.25;;
42364;SDS011;28498;54.400;18.566;2022-12-07T07:20:36;4.65;;;2.53;;
42364;SDS011;28498;54.400;18.566;2022-12-07T07:23:04;5.10;;;2.47;;
42364;SDS011;28498;54.400;18.566;2022-12-07T07:25:31;5.40;;;2.70;;
42364;SDS011;28498;54.400;18.566;2022-12-07T07:27:59;6.03;;;3.22;;
42364;SDS011;28498;54.400;18.566;2022-12-07T07:30:26;6.13;;;2.85;;
42364;SDS011;28498;54.400;18.566;2022-12-07T07:33:00;7.40;;;2.83;;
42364;SDS011;28498;54.400;18.566;2022-12-07T07:37:56;6.82;;;3.53;;
42364;SDS011;28498;54.400;18.566;2022-12-07T07:40:24;7.75;;;3.75;;
42364;SDS011;28498;54.400;18.566;2022-12-07T07:42:52;6.63;;;3.63;;
42364;SDS011;28498;54.400;18.566;2022-12-07T07:45:20;5.40;;;3.30;;
42364;SDS011;28498;54.400;18.566;2022-12-07T07:47:49;4.85;;;2.90;;
42364;SDS011;28498;54.400;18.566;2022-12-07T07:50:16;7.60;;;3.92;;
42364;SDS011;28498;54.400;18.566;2022-12-07T07:52:44;6.57;;;3.70;;
42364;SDS011;28498;54.400;18.566;2022-12-07T07:55:11;8.05;;;4.28;;
42364;SDS011;28498;54.400;18.566;2022-12-07T07:57:39;8.50;;;4.05;;
42364;SDS011;28498;54.400;18.566;2022-12-07T08:00:08;9.68;;;4.85;;
42364;SDS011;28498;54.400;18.566;2022-12-07T08:02:41;9.75;;;4.90;;
42364;SDS011;28498;54.400;18.566;2022-12-07T08:05:10;7.30;;;4.28;;
42364;SDS011;28498;54.400;18.566;2022-12-07T08:07:39;12.07;;;4.55;;
42364;SDS011;28498;54.400;18.566;2022-12-07T08:10:06;10.90;;;5.53;;
42364;SDS011;28498;54.400;18.566;2022-12-07T08:12:37;9.38;;;4.85;;
42364;SDS011;28498;54.400;18.566;2022-12-07T08:15:26;11.30;;;5.70;;
42364;SDS011;28498;54.400;18.566;2022-12-07T08:17:54;12.65;;;5.80;;
42364;SDS011;28498;54.400;18.566;2022-12-07T08:20:21;8.75;;;5.45;;
42364;SDS011;28498;54.400;18.566;2022-12-07T08:22:49;10.57;;;5.47;;
42364;SDS011;28498;54.400;18.566;2022-12-07T08:25:16;11.68;;;5.88;;
42364;SDS011;28498;54.400;18.566;2022-12-07T08:27:43;10.43;;;5.78;;
42364;SDS011;28498;54.400;18.566;2022-12-07T08:30:10;9.68;;;5.80;;
42364;SDS011;28498;54.400;18.566;2022-12-07T08:32:37;10.40;;;5.78;;
42364;SDS011;28498;54.400;18.566;2022-12-07T08:35:04;11.50;;;5.78;;
42364;SDS011;28498;54.400;18.566;2022-12-07T08:37:31;10.10;;;5.85;;
42364;SDS011;28498;54.400;18.566;2022-12-07T08:39:59;11.82;;;6.28;;
42364;SDS011;28498;54.400;18.566;2022-12-07T08:42:27;10.02;;;5.78;;
42364;SDS011;28498;54.400;18.566;2022-12-07T08:44:56;8.55;;;4.82;;
42364;SDS011;28498;54.400;18.566;2022-12-07T08:47:23;8.30;;;4.15;;
42364;SDS011;28498;54.400;18.566;2022-12-07T08:49:51;11.07;;;5.15;;
42364;SDS011;28498;54.400;18.566;2022-12-07T08:52:19;8.73;;;5.13;;
42364;SDS011;28498;54.400;18.566;2022-12-07T08:54:46;9.02;;;5.05;;
42364;SDS011;28498;54.400;18.566;2022-12-07T08:57:13;7.72;;;5.05;;
42364;SDS011;28498;54.400;18.566;2022-12-07T08:59:40;8.18;;;4.60;;
42364;SDS011;28498;54.400;18.566;2022-12-07T09:02:07;7.72;;;4.00;;
42364;SDS011;28498;54.400;18.566;2022-12-07T09:04:35;7.40;;;3.75;;
42364;SDS011;28498;54.400;18.566;2022-12-07T09:07:01;8.40;;;5.03;;
42364;SDS011;28498;54.400;18.566;2022-12-07T09:09:29;8.70;;;3.90;;
42364;SDS011;28498;54.400;18.566;2022-12-07T09:11:56;6.10;;;3.80;;
42364;SDS011;28498;54.400;18.566;2022-12-07T09:14:23;6.25;;;3.90;;
42364;SDS011;28498;54.400;18.566;2022-12-07T09:16:50;7.40;;;3.75;;
42364;SDS011;28498;54.400;18.566;2022-12-07T09:19:18;7.25;;;4.10;;
42364;SDS011;28498;54.400;18.566;2022-12-07T09:21:45;6.65;;;3.63;;
42364;SDS011;28498;54.400;18.566;2022-12-07T09:24:12;6.97;;;3.85;;
42364;SDS011;28498;54.400;18.566;2022-12-07T09:30:27;7.68;;;3.65;;
42364;SDS011;28498;54.400;18.566;2022-12-07T09:32:55;6.53;;;3.60;;
42364;SDS011;28498;54.400;18.566;2022-12-07T09:35:23;6.78;;;3.72;;
42364;SDS011;28498;54.400;18.566;2022-12-07T09:37:52;8.15;;;3.95;;
42364;SDS011;28498;54.400;18.566;2022-12-07T09:40:20;7.70;;;5.20;;
42364;SDS011;28498;54.400;18.566;2022-12-07T09:42:49;7.43;;;3.63;;
42364;SDS011;28498;54.400;18.566;2022-12-07T09:45:22;7.45;;;4.00;;
42364;SDS011;28498;54.400;18.566;2022-12-07T09:47:55;6.85;;;3.88;;
42364;SDS011;28498;54.400;18.566;2022-12-07T09:50:24;7.78;;;4.10;;
42364;SDS011;28498;54.400;18.566;2022-12-07T09:52:53;7.88;;;3.60;;
42364;SDS011;28498;54.400;18.566;2022-12-07T09:55:34;8.65;;;4.88;;
42364;SDS011;28498;54.400;18.566;2022-12-07T09:58:02;7.05;;;4.35;;
42364;SDS011;28498;54.400;18.566;2022-12-07T10:00:30;6.70;;;3.97;;
42364;SDS011;28498;54.400;18.566;2022-12-07T10:03:02;9.27;;;4.43;;
42364;SDS011;28498;54.400;18.566;2022-12-07T10:05:34;6.55;;;4.00;;
42364;SDS011;28498;54.400;18.566;2022-12-07T10:08:01;8.20;;;4.38;;
42364;SDS011;28498;54.400;18.566;2022-12-07T10:10:32;9.10;;;5.40;;
42364;SDS011;28498;54.400;18.566;2022-12-07T10:18:36;8.18;;;5.07;;
42364;SDS011;28498;54.400;18.566;2022-12-07T10:26:34;7.95;;;5.05;;
42364;SDS011;28498;54.400;18.566;2022-12-07T10:29:14;11.32;;;5.22;;
42364;SDS011;28498;54.400;18.566;2022-12-07T10:31:42;9.52;;;5.75;;
42364;SDS011;28498;54.400;18.566;2022-12-07T10:34:23;8.07;;;5.07;;
42364;SDS011;28498;54.400;18.566;2022-12-07T10:36:52;9.00;;;4.93;;
42364;SDS011;28498;54.400;18.566;2022-12-07T10:39:39;9.57;;;4.70;;
42364;SDS011;28498;54.400;18.566;2022-12-07T10:42:24;10.73;;;5.13;;
42364;SDS011;28498;54.400;18.566;2022-12-07T10:45:09;9.65;;;4.65;;
42364;SDS011;28498;54.400;18.566;2022-12-07T10:47:38;9.95;;;5.22;;
42364;SDS011;28498;54.400;18.566;2022-12-07T11:01:10;7.97;;;4.53;;
42364;SDS011;28498;54.400;18.566;2022-12-07T11:04:21;7.03;;;3.80;;
42364;SDS011;28498;54.400;18.566;2022-12-07T11:09:44;8.57;;;4.47;;
42364;SDS011;28498;54.400;18.566;2022-12-07T11:18:10;7.63;;;4.65;;
42364;SDS011;28498;54.400;18.566;2022-12-07T11:20:43;11.00;;;4.85;;
42364;SDS011;28498;54.400;18.566;2022-12-07T11:32:10;7.60;;;4.38;;
42364;SDS011;28498;54.400;18.566;2022-12-07T11:37:39;11.25;;;5.45;;
42364;SDS011;28498;54.400;18.566;2022-12-07T11:40:26;8.32;;;5.22;;
42364;SDS011;28498;54.400;18.566;2022-12-07T11:43:04;7.43;;;4.25;;
42364;SDS011;28498;54.400;18.566;2022-12-07T11:46:00;9.07;;;4.55;;
42364;SDS011;28498;54.400;18.566;2022-12-07T11:48:40;7.93;;;4.43;;
42364;SDS011;28498;54.400;18.566;2022-12-07T11:51:11;8.27;;;5.00;;
42364;SDS011;28498;54.400;18.566;2022-12-07T11:53:40;8.27;;;4.55;;
42364;SDS011;28498;54.400;18.566;2022-12-07T11:56:33;7.78;;;4.40;;
42364;SDS011;28498;54.400;18.566;2022-12-07T11:59:06;12.32;;;4.88;;
42364;SDS011;28498;54.400;18.566;2022-12-07T12:04:30;8.90;;;4.80;;
42364;SDS011;28498;54.400;18.566;2022-12-07T12:07:15;8.93;;;4.13;;
42364;SDS011;28498;54.400;18.566;2022-12-07T12:10:13;8.40;;;4.43;;
42364;SDS011;28498;54.400;18.566;2022-12-07T12:21:02;9.13;;;5.38;;
42364;SDS011;28498;54.400;18.566;2022-12-07T12:23:56;8.18;;;4.50;;
42364;SDS011;28498;54.400;18.566;2022-12-07T12:26:27;9.48;;;4.70;;
42364;SDS011;28498;54.400;18.566;2022-12-07T12:28:58;10.48;;;5.55;;
42364;SDS011;28498;54.400;18.566;2022-12-07T12:33:55;11.20;;;5.40;;
42364;SDS011;28498;54.400;18.566;2022-12-07T12:39:11;8.43;;;5.05;;
42364;SDS011;28498;54.400;18.566;2022-12-07T12:47:03;8.88;;;5.70;;
42364;SDS011;28498;54.400;18.566;2022-12-07T12:50:34;10.82;;;5.45;;
42364;SDS011;28498;54.400;18.566;2022-12-07T12:52:52;10.53;;;5.23;;
42364;SDS011;28498;54.400;18.566;2022-12-07T12:58:36;10.18;;;5.45;;
42364;SDS011;28498;54.400;18.566;2022-12-07T13:01:47;10.07;;;5.43;;
42364;SDS011;28498;54.400;18.566;2022-12-07T13:04:14;11.73;;;5.35;;
42364;SDS011;28498;54.400;18.566;2022-12-07T13:06:51;8.95;;;5.57;;
42364;SDS011;28498;54.400;18.566;2022-12-07T13:09:23;10.32;;;5.50;;
42364;SDS011;28498;54.400;18.566;2022-12-07T13:12:05;11.30;;;5.50;;
42364;SDS011;28498;54.400;18.566;2022-12-07T13:19:58;10.25;;;5.00;;
42364;SDS011;28498;54.400;18.566;2022-12-07T13:28:01;7.60;;;4.45;;
42364;SDS011;28498;54.400;18.566;2022-12-07T13:33:32;9.95;;;4.85;;
42364;SDS011;28498;54.400;18.566;2022-12-07T13:36:01;10.25;;;5.03;;
42364;SDS011;28498;54.400;18.566;2022-12-07T13:38:33;9.23;;;4.35;;
42364;SDS011;28498;54.400;18.566;2022-12-07T13:43:43;9.52;;;4.72;;
42364;SDS011;28498;54.400;18.566;2022-12-07T13:46:11;12.55;;;4.95;;
42364;SDS011;28498;54.400;18.566;2022-12-07T13:48:48;9.65;;;4.93;;
42364;SDS011;28498;54.400;18.566;2022-12-07T13:51:24;9.63;;;4.88;;
42364;SDS011;28498;54.400;18.566;2022-12-07T13:53:53;8.13;;;4.75;;
42364;SDS011;28498;54.400;18.566;2022-12-07T13:56:22;10.77;;;5.10;;
42364;SDS011;28498;54.400;18.566;2022-12-07T13:58:55;10.10;;;5.60;;
42364;SDS011;28498;54.400;18.566;2022-12-07T14:01:24;7.47;;;4.10;;
42364;SDS011;28498;54.400;18.566;2022-12-07T14:03:51;12.52;;;5.55;;
42364;SDS011;28498;54.400;18.566;2022-12-07T14:06:27;10.02;;;5.53;;
42364;SDS011;28498;54.400;18.566;2022-12-07T14:11:46;10.95;;;5.28;;
42364;SDS011;28498;54.400;18.566;2022-12-07T14:14:17;10.88;;;4.93;;
42364;SDS011;28498;54.400;18.566;2022-12-07T14:16:56;10.27;;;5.13;;
42364;SDS011;28498;54.400;18.566;2022-12-07T14:20:02;9.02;;;4.75;;
42364;SDS011;28498;54.400;18.566;2022-12-07T14:22:32;14.75;;;5.25;;
42364;SDS011;28498;54.400;18.566;2022-12-07T14:25:16;11.23;;;6.07;;
42364;SDS011;28498;54.400;18.566;2022-12-07T14:27:52;10.63;;;4.85;;
42364;SDS011;28498;54.400;18.566;2022-12-07T14:30:22;14.63;;;5.40;;
42364;SDS011;28498;54.400;18.566;2022-12-07T14:32:52;16.13;;;6.35;;
42364;SDS011;28498;54.400;18.566;2022-12-07T14:35:21;12.50;;;5.38;;
42364;SDS011;28498;54.400;18.566;2022-12-07T14:37:48;11.75;;;5.82;;
42364;SDS011;28498;54.400;18.566;2022-12-07T14:40:20;12.05;;;5.88;;
42364;SDS011;28498;54.400;18.566;2022-12-07T14:42:54;11.02;;;5.47;;
42364;SDS011;28498;54.400;18.566;2022-12-07T14:45:35;10.90;;;5.80;;
42364;SDS011;28498;54.400;18.566;2022-12-07T14:48:02;11.73;;;6.03;;
42364;SDS011;28498;54.400;18.566;2022-12-07T14:50:51;10.25;;;5.35;;
42364;SDS011;28498;54.400;18.566;2022-12-07T14:53:40;11.15;;;5.43;;
42364;SDS011;28498;54.400;18.566;2022-12-07T14:56:18;12.48;;;5.50;;
42364;SDS011;28498;54.400;18.566;2022-12-07T14:58:45;12.75;;;5.60;;
42364;SDS011;28498;54.400;18.566;2022-12-07T15:01:14;8.55;;;4.85;;
42364;SDS011;28498;54.400;18.566;2022-12-07T15:03:41;13.00;;;5.97;;
42364;SDS011;28498;54.400;18.566;2022-12-07T15:06:09;9.60;;;4.65;;
42364;SDS011;28498;54.400;18.566;2022-12-07T15:08:41;10.57;;;5.20;;
42364;SDS011;28498;54.400;18.566;2022-12-07T15:11:14;9.73;;;4.03;;
42364;SDS011;28498;54.400;18.566;2022-12-07T15:13:42;8.00;;;4.13;;
42364;SDS011;28498;54.400;18.566;2022-12-07T15:16:28;11.45;;;4.68;;
42364;SDS011;28498;54.400;18.566;2022-12-07T15:19:16;10.38;;;3.95;;
42364;SDS011;28498;54.400;18.566;2022-12-07T15:21:54;13.90;;;5.38;;
42364;SDS011;28498;54.400;18.566;2022-12-07T15:24:22;13.20;;;4.55;;
42364;SDS011;28498;54.400;18.566;2022-12-07T15:26:50;8.80;;;4.00;;
42364;SDS011;28498;54.400;18.566;2022-12-07T15:29:17;10.90;;;4.40;;
42364;SDS011;28498;54.400;18.566;2022-12-07T15:31:50;11.63;;;5.28;;
42364;SDS011;28498;54.400;18.566;2022-12-07T15:34:23;9.35;;;4.00;;
42364;SDS011;28498;54.400;18.566;2022-12-07T15:36:51;7.78;;;3.70;;
42364;SDS011;28498;54.400;18.566;2022-12-07T15:39:18;9.32;;;4.55;;
42364;SDS011;28498;54.400;18.566;2022-12-07T15:41:47;9.32;;;4.20;;
42364;SDS011;28498;54.400;18.566;2022-12-07T15:44:20;8.30;;;4.55;;
42364;SDS011;28498;54.400;18.566;2022-12-07T15:47:05;9.18;;;4.68;;
42364;SDS011;28498;54.400;18.566;2022-12-07T15:49:33;7.97;;;5.18;;
42364;SDS011;28498;54.400;18.566;2022-12-07T15:52:00;9.25;;;4.47;;
42364;SDS011;28498;54.400;18.566;2022-12-07T15:54:27;8.88;;;4.45;;
42364;SDS011;28498;54.400;18.566;2022-12-07T15:56:55;10.02;;;4.38;;
42364;SDS011;28498;54.400;18.566;2022-12-07T15:59:22;10.48;;;4.72;;
42364;SDS011;28498;54.400;18.566;2022-12-07T16:01:51;7.43;;;4.15;;
42364;SDS011;28498;54.400;18.566;2022-12-07T16:04:18;7.65;;;4.63;;
42364;SDS011;28498;54.400;18.566;2022-12-07T16:06:45;10.02;;;4.00;;
42364;SDS011;28498;54.400;18.566;2022-12-07T16:09:12;8.90;;;4.75;;
42364;SDS011;28498;54.400;18.566;2022-12-07T16:11:39;8.45;;;4.57;;
42364;SDS011;28498;54.400;18.566;2022-12-07T16:14:06;11.45;;;4.22;;
42364;SDS011;28498;54.400;18.566;2022-12-07T16:16:33;9.85;;;4.57;;
42364;SDS011;28498;54.400;18.566;2022-12-07T16:19:00;8.68;;;4.32;;
42364;SDS011;28498;54.400;18.566;2022-12-07T16:21:28;6.50;;;4.05;;
42364;SDS011;28498;54.400;18.566;2022-12-07T16:23:57;8.43;;;4.05;;
42364;SDS011;28498;54.400;18.566;2022-12-07T16:26:25;9.82;;;3.95;;
42364;SDS011;28498;54.400;18.566;2022-12-07T16:28:52;8.13;;;4.05;;
42364;SDS011;28498;54.400;18.566;2022-12-07T16:31:20;7.35;;;4.15;;
42364;SDS011;28498;54.400;18.566;2022-12-07T16:33:49;6.80;;;3.72;;
42364;SDS011;28498;54.400;18.566;2022-12-07T16:36:19;8.13;;;3.55;;
42364;SDS011;28498;54.400;18.566;2022-12-07T16:39:08;6.75;;;3.60;;
42364;SDS011;28498;54.400;18.566;2022-12-07T16:41:35;8.23;;;4.20;;
42364;SDS011;28498;54.400;18.566;2022-12-07T16:44:05;8.70;;;4.65;;
42364;SDS011;28498;54.400;18.566;2022-12-07T16:46:34;6.03;;;3.45;;
42364;SDS011;28498;54.400;18.566;2022-12-07T16:49:02;7.32;;;3.05;;
42364;SDS011;28498;54.400;18.566;2022-12-07T16:51:30;6.00;;;3.17;;
42364;SDS011;28498;54.400;18.566;2022-12-07T16:53:57;6.43;;;3.67;;
42364;SDS011;28498;54.400;18.566;2022-12-07T16:56:25;5.50;;;3.13;;
42364;SDS011;28498;54.400;18.566;2022-12-07T16:58:53;5.57;;;3.00;;
42364;SDS011;28498;54.400;18.566;2022-12-07T17:01:21;6.35;;;3.17;;
42364;SDS011;28498;54.400;18.566;2022-12-07T17:03:54;9.63;;;4.53;;